Latest Weather Observations for Warwick

IDQ60801

Issued at 9:52 pm EST Tuesday 4 August 2020 (issued every 10 minutes, with the page automatically refreshed every 10 minutes)

About weather observations | Map of weather stations | Latest weather observations for QLD | Other Formats
Station Details ID: 041525 Name: WARWICK Lat: -28.21 Lon: 152.10 Height: 475.4 m
Data from the previous 72 hours. | See also: Recent months at Warwick
Date/Time
EST
Temp
°C
App
Temp
°C
Dew
Point
°C
Rel
Hum
%
Delta-T
°C
Wind Press
QNH
hPa
Press
MSL
hPa
Rain since
9am
mm
Dir  Spd
km/h
Gust
km/h
Spd
kts
Gust
kts
04/09:30pm 8.4 7.2 4.4 76 1.8 CALM 0 0 0 0 1015.1 1014.9 0.0
04/09:00pm 8.1 6.7 3.8 74 1.9 CALM 0 0 0 0 1014.8 1014.7 0.0
04/08:30pm 7.4 4.2 1.0 64 2.6 SW 7 13 4 7 1014.6 1014.4 0.0
04/08:27pm 7.9 4.9 0.9 61 2.9 W 6 13 3 7 1014.6 1014.4 0.0
04/08:00pm 12.9 10.5 4.1 55 4.1 NNE 6 9 3 5 1014.5 1014.3 0.0
04/07:30pm 11.2 9.9 4.2 62 3.2 CALM 0 0 0 0 1014.5 1014.3 0.0
04/07:00pm 11.7 10.3 3.7 58 3.7 CALM 0 0 0 0 1014.4 1014.2 0.0
04/06:30pm 14.8 12.0 3.3 46 5.3 WSW 7 13 4 7 1014.3 1014.1 0.0
04/06:00pm 16.4 12.6 3.8 43 6.0 NNW 13 15 7 8 1014.1 1013.9 0.0
04/05:30pm 17.2 14.1 3.8 41 6.4 NNW 9 13 5 7 1013.8 1013.6 0.0
04/05:00pm 18.4 15.4 4.2 39 6.9 WNW 9 13 5 7 1013.5 1013.3 0.0
04/04:30pm 19.6 16.8 3.3 34 7.9 WNW 7 19 4 10 1013.3 1013.1 0.0
04/04:00pm 19.2 15.4 3.8 36 7.5 WNW 13 26 7 14 1013.3 1013.1 0.0
04/03:30pm 19.0 15.8 3.2 35 7.6 WNW 9 20 5 11 1013.3 1013.1 0.0
04/03:00pm 18.8 14.9 3.4 36 7.4 W 13 22 7 12 1013.3 1013.1 0.0
04/02:30pm 19.8 15.2 3.9 35 7.8 W 17 28 9 15 1013.4 1013.2 0.0
04/02:00pm 20.0 16.1 3.3 33 8.1 W 13 26 7 14 1013.5 1013.3 0.0
04/01:30pm 19.2 14.5 3.4 35 7.6 NW 17 28 9 15 1013.8 1013.6 0.0
04/01:00pm 19.9 16.1 4.0 35 7.8 WNW 13 24 7 13 1014.1 1013.9 0.0
04/12:30pm 19.4 15.1 3.2 34 7.8 W 15 26 8 14 1014.5 1014.3 0.0
04/12:00pm 18.6 14.1 4.4 39 6.9 WNW 17 26 9 14 1015.1 1014.9 0.0
04/11:30am 18.8 14.6 5.6 42 6.6 WNW 17 26 9 14 1015.7 1015.5 0.0
04/11:00am 18.0 15.0 5.9 45 6.1 NW 11 22 6 12 1016.2 1016.0 0.0
04/10:30am 17.3 13.8 7.4 52 5.1 WNW 15 22 8 12 1016.7 1016.6 0.0
04/10:00am 16.6 13.1 7.0 53 4.9 NW 15 22 8 12 1017.3 1017.1 0.0
04/09:30am 14.1 12.6 8.3 68 3.0 SSW 6 9 3 5 1017.5 1017.3 0.0
04/09:00am 12.5 12.1 8.2 75 2.2 CALM 0 0 0 0 1017.6 1017.4 0.0
04/08:30am 11.1 10.2 7.8 80 1.6 SW 2 11 1 6 1017.7 1017.5 0.0
04/08:00am 10.0 8.8 7.9 87 1.0 SW 4 11 2 6 1017.8 1017.6 0.0
04/07:30am 9.0 7.7 7.5 90 0.7 SW 4 9 2 5 1017.7 1017.5 0.0
04/07:00am 8.6 7.5 7.1 90 0.7 S 2 9 1 5 1017.5 1017.3 0.0
04/06:30am 8.6 8.1 7.7 94 0.4 CALM 0 0 0 0 1017.3 1017.1 0.0
04/06:00am 8.9 8.3 7.5 91 0.7 CALM 0 0 0 0 1017.1 1017.0 0.0
04/05:30am 8.4 7.6 6.5 88 0.9 CALM 0 0 0 0 1017.0 1016.9 0.0
04/05:00am 8.6 7.9 6.9 89 0.8 CALM 0 0 0 0 1017.0 1016.9 0.0
04/04:30am 8.9 8.2 6.9 87 1.0 CALM 0 0 0 0 1017.0 1016.9 0.0
04/04:00am 8.7 7.8 6.2 84 1.2 CALM 0 0 0 0 1017.3 1017.1 0.0
04/03:30am 8.7 8.0 6.8 88 0.9 CALM 0 0 0 0 1017.5 1017.3 0.0
04/03:00am 8.4 6.4 6.2 86 1.0 NE 6 11 3 6 1017.6 1017.4 0.0
04/02:30am 8.5 7.7 6.3 86 1.0 CALM 0 9 0 5 1017.6 1017.4 0.0
04/02:00am 9.3 7.9 7.1 86 1.1 WSW 4 7 2 4 1017.9 1017.7 0.0
04/01:30am 8.7 7.6 7.0 89 0.8 WSW 2 9 1 5 1018.1 1017.9 0.0
04/01:00am 7.9 6.3 6.4 90 0.7 W 4 11 2 6 1017.7 1017.5 0.0
04/12:30am 7.4 5.2 5.4 87 0.9 W 6 13 3 7 1017.8 1017.6 0.0
04/12:00am 7.9 7.0 6.0 88 0.9 CALM 0 0 0 0 1018.1 1017.9 0.0
 
Date/Time
EST
Temp
°C
App
Temp
°C
Dew
Point
°C
Rel
Hum
%
Delta-T
°C
Wind Press
QNH
hPa
Press
MSL
hPa
Rain since
9am
mm
Dir  Spd
km/h
Gust
km/h
Spd
kts
Gust
kts
03/11:30pm 7.4 6.2 4.4 81 1.3 CALM 0 0 0 0 1018.4 1018.3 0.0
03/11:00pm 8.5 7.6 6.0 84 1.2 CALM 0 0 0 0 1018.5 1018.4 0.0
03/10:30pm 7.9 6.9 5.4 84 1.2 CALM 0 0 0 0 1018.7 1018.6 0.0
03/10:00pm 6.9 5.6 4.0 82 1.3 CALM 0 0 0 0 1018.5 1018.4 0.0
03/09:30pm 7.6 6.4 4.6 81 1.4 CALM 0 9 0 5 1018.3 1018.1 0.0
03/09:00pm 8.3 5.8 4.9 79 1.5 ENE 7 9 4 5 1018.1 1017.9 0.0
03/08:30pm 8.7 6.2 3.7 71 2.2 NNE 6 9 3 5 1018.0 1017.8 0.0
03/08:00pm 9.2 6.6 4.0 70 2.3 ENE 7 11 4 6 1017.9 1017.7 0.0
03/07:30pm 9.8 8.2 4.4 69 2.5 E 2 6 1 3 1017.7 1017.5 0.0
03/07:00pm 11.6 10.3 4.3 61 3.4 CALM 0 0 0 0 1017.5 1017.3 0.0
03/06:30pm 12.3 9.8 4.8 60 3.5 WNW 7 7 4 4 1017.5 1017.3 0.0
03/06:00pm 12.5 11.3 4.7 59 3.7 CALM 0 0 0 0 1017.4 1017.2 0.0
03/05:30pm 13.1 11.9 4.5 56 4.0 CALM 0 0 0 0 1017.4 1017.2 0.0
03/05:00pm 16.3 14.6 4.0 44 5.9 WNW 2 6 1 3 1017.5 1017.3 0.0
03/04:30pm 18.5 15.8 2.8 35 7.4 WNW 6 11 3 6 1017.6 1017.4 0.0
03/04:00pm 19.5 16.9 4.0 36 7.6 NW 7 15 4 8 1017.8 1017.6 0.0
03/03:30pm 20.3 17.9 4.4 35 7.9 W 6 9 3 5 1017.8 1017.6 0.0
03/03:00pm 18.4 15.9 3.5 37 7.1 W 6 9 3 5 1017.9 1017.7 0.0
03/02:30pm 19.7 16.3 4.2 36 7.6 WSW 11 17 6 9 1018.2 1018.0 0.0
03/02:00pm 19.1 15.7 4.1 37 7.3 WSW 11 15 6 8 1018.5 1018.4 0.0
03/01:30pm 19.6 16.5 5.6 40 7.1 WSW 11 20 6 11 1018.9 1018.8 0.0
03/01:00pm 19.1 16.0 5.6 41 6.8 SSW 11 20 6 11 1019.2 1019.1 0.0
03/12:30pm 18.7 16.5 5.5 42 6.6 W 6 15 3 8 1020.0 1019.8 0.0
03/12:00pm 18.2 15.5 5.4 43 6.4 WSW 9 15 5 8 1020.5 1020.4 0.0
03/11:30am 17.8 15.3 4.7 42 6.4 W 7 15 4 8 1021.2 1021.1 0.0
03/11:00am 17.9 16.2 7.6 51 5.3 N 6 15 3 8 1021.7 1021.5 0.0
03/10:30am 16.6 16.2 9.8 64 3.7 SSW 2 7 1 4 1022.0 1021.9 0.0
03/10:00am 14.9 15.0 10.3 74 2.5 CALM 0 0 0 0 1022.5 1022.4 0.0
03/09:30am 11.9 12.0 10.3 90 0.8 CALM 0 0 0 0 1022.9 1022.8 0.0
03/09:00am 9.7 9.7 9.7 100 0.0 CALM 0 0 0 0 1023.0 1022.9 0.2
03/08:30am 6.5 5.7 6.5 100 0.0 CALM 0 0 0 0 1022.9 1022.8 0.0
03/08:00am 4.9 3.8 4.9 100 0.0 CALM 0 0 0 0 1022.7 1022.6 0.0
03/07:30am 3.6 2.2 3.6 100 0.0 CALM 0 0 0 0 1022.5 1022.4 0.0
03/07:00am 2.8 1.3 2.8 100 0.0 CALM 0 0 0 0 1022.5 1022.4 0.0
03/06:30am 2.2 0.6 2.2 100 0.0 CALM 0 0 0 0 1022.3 1022.2 0.0
03/06:00am 2.9 1.4 2.9 100 0.0 CALM 0 0 0 0 1021.9 1021.7 0.0
03/05:30am 2.7 1.1 2.7 100 0.0 CALM 0 0 0 0 1022.0 1021.9 0.0
03/05:00am 2.1 0.4 2.0 99 0.0 CALM 0 0 0 0 1021.8 1021.6 0.0
03/04:30am 3.3 1.9 3.3 100 0.0 CALM 0 0 0 0 1021.4 1021.3 0.0
03/04:00am 4.1 2.8 4.1 100 0.0 CALM 0 0 0 0 1021.3 1021.2 0.0
03/03:30am 4.7 3.5 4.7 100 0.0 CALM 0 0 0 0 1021.3 1021.2 0.0
03/03:00am 4.5 3.3 4.4 99 0.0 CALM 0 0 0 0 1021.5 1021.4 0.0
03/02:30am 5.8 4.8 5.8 100 0.0 CALM 0 0 0 0 1021.8 1021.6 0.0
03/02:00am 5.3 4.2 5.3 100 0.0 CALM 0 0 0 0 1021.9 1021.7 0.0
03/01:30am 5.4 4.3 5.3 99 0.0 CALM 0 0 0 0 1022.2 1022.1 0.0
03/01:00am 5.7 4.6 5.1 96 0.3 CALM 0 0 0 0 1022.4 1022.3 0.0
03/12:30am 7.5 6.9 7.4 99 0.0 CALM 0 0 0 0 1022.6 1022.5 0.0
03/12:00am 7.3 6.6 7.0 98 0.1 CALM 0 0 0 0 1022.8 1022.7 0.0
 
Date/Time
EST
Temp
°C
App
Temp
°C
Dew
Point
°C
Rel
Hum
%
Delta-T
°C
Wind Press
QNH
hPa
Press
MSL
hPa
Rain since
9am
mm
Dir  Spd
km/h
Gust
km/h
Spd
kts
Gust
kts
02/11:30pm 7.5 6.5 5.8 89 0.8 CALM 0 0 0 0 1022.8 1022.7 0.0
02/11:00pm 7.5 6.6 6.1 91 0.6 CALM 0 0 0 0 1022.9 1022.8 0.0
02/10:30pm 6.4 5.0 3.6 82 1.2 CALM 0 0 0 0 1022.9 1022.8 0.0
02/10:00pm 9.3 8.1 4.5 72 2.2 CALM 0 0 0 0 1022.8 1022.7 0.0
02/09:30pm 8.2 7.1 5.0 80 1.5 CALM 0 0 0 0 1022.9 1022.8 0.0
02/09:00pm 9.5 8.4 5.1 74 2.0 CALM 0 0 0 0 1022.9 1022.8 0.0
02/08:30pm 9.7 8.6 5.1 73 2.1 CALM 0 0 0 0 1022.9 1022.8 0.0
02/08:00pm 9.3 6.8 3.7 68 2.5 W 6 11 3 6 1022.8 1022.7 0.0
02/07:30pm 10.2 9.0 4.4 67 2.7 CALM 0 0 0 0 1022.6 1022.5 0.0
02/07:00pm 11.9 8.4 3.4 56 3.9 N 11 15 6 8 1022.3 1022.2 0.0
02/06:30pm 12.5 11.0 2.9 52 4.3 CALM 0 0 0 0 1022.0 1021.9 0.0
02/06:00pm 13.3 11.9 3.7 52 4.4 CALM 0 0 0 0 1021.9 1021.7 0.0
02/05:30pm 14.2 12.7 2.8 46 5.2 CALM 0 0 0 0 1021.9 1021.7 0.0
02/05:00pm 16.0 14.5 2.8 41 6.1 CALM 0 0 0 0 1021.9 1021.7 0.0
02/04:30pm 20.9 19.0 2.7 30 8.8 SW 2 9 1 5 1021.7 1021.5 0.0
02/04:00pm 21.0 18.7 2.8 30 8.8 N 4 9 2 5 1021.4 1021.3 0.0
02/03:30pm 20.8 18.2 3.1 31 8.6 WSW 6 11 3 6 1021.4 1021.3 0.0
02/03:00pm 20.4 17.4 1.8 29 8.7 ENE 7 11 4 6 1021.5 1021.4 0.0
02/02:30pm 20.4 17.4 2.3 30 8.6 WNW 7 11 4 6 1021.8 1021.6 0.0
02/02:00pm 19.9 16.8 1.4 29 8.6 WSW 7 13 4 7 1022.1 1022.0 0.0
02/01:30pm 19.5 16.6 2.4 32 8.1 WNW 7 13 4 7 1022.6 1022.5 0.0
02/01:00pm 18.6 15.8 2.9 35 7.4 SSE 7 13 4 7 1022.9 1022.8 0.0
02/12:30pm 19.2 16.9 5.6 41 6.8 SE 7 13 4 7 1023.4 1023.3 0.0
02/12:00pm 18.3 16.3 7.1 48 5.7 SE 7 11 4 6 1024.3 1024.2 0.0
02/11:30am 17.3 15.2 6.5 49 5.5 S 7 11 4 6 1024.8 1024.7 0.0
02/11:00am 17.0 16.3 8.7 58 4.4 WSW 2 9 1 5 1025.3 1025.2 0.0
02/10:30am 15.4 15.2 9.1 66 3.3 CALM 0 0 0 0 1025.8 1025.8 0.0
02/10:00am 12.8 12.5 8.7 76 2.1 CALM 0 0 0 0 1026.3 1026.2 0.0
02/09:30am 11.6 11.4 9.0 84 1.3 CALM 0 0 0 0 1026.5 1026.4 0.0
02/09:00am 9.5 9.4 9.5 100 0.0 CALM 0 0 0 0 1026.6 1026.5 0.0
02/08:30am 7.0 6.3 7.0 100 0.0 CALM 0 0 0 0 1026.4 1026.3 0.0
02/08:00am 2.8 1.3 2.8 100 0.0 CALM 0 6 0 3 1026.4 1026.3 0.0
02/07:30am 1.1 -0.7 1.1 100 0.0 CALM 0 0 0 0 1026.0 1026.0 0.0
02/07:00am 1.3 -0.5 1.3 100 0.0 CALM 0 6 0 3 1025.9 1025.9 0.0
02/06:30am 1.7 -1.2 1.7 100 0.0 ENE 6 11 3 6 1025.6 1025.6 0.0
02/06:00am 1.7 0.0 1.7 100 0.0 CALM 0 0 0 0 1025.2 1025.1 0.0
02/05:30am 1.4 -0.4 1.4 100 0.0 CALM 0 0 0 0 1025.0 1024.9 0.0
02/05:00am 1.4 -0.4 1.4 100 0.0 CALM 0 0 0 0 1024.5 1024.4 0.0
02/04:30am 2.3 0.7 2.3 100 0.0 CALM 0 0 0 0 1024.3 1024.2 0.0
02/04:00am 2.7 1.1 2.7 100 0.0 CALM 0 0 0 0 1024.2 1024.1 0.0
02/03:30am 3.4 2.0 3.4 100 0.0 CALM 0 0 0 0 1024.3 1024.2 0.0
02/03:00am 2.9 1.4 2.9 100 0.0 CALM 0 0 0 0 1024.6 1024.5 0.0
02/02:30am 4.0 2.7 4.0 100 0.0 CALM 0 0 0 0 1024.7 1024.6 0.0
02/02:00am 4.0 2.7 4.0 100 0.0 CALM 0 0 0 0 1024.8 1024.7 0.0
02/01:30am 5.1 4.0 5.1 100 0.0 CALM 0 0 0 0 1024.8 1024.7 0.0
02/01:00am 4.0 1.0 4.0 100 0.0 NE 9 9 5 5 1025.1 1025.0 0.0
02/12:30am 4.0 2.7 4.0 100 0.0 CALM 0 0 0 0 1025.2 1025.1 0.0
02/12:00am 3.2 1.4 0.9 85 0.9 CALM 0 0 0 0 1025.3 1025.2 0.0
 
Date/Time
EST
Temp
°C
App
Temp
°C
Dew
Point
°C
Rel
Hum
%
Delta-T
°C
Wind Press
QNH
hPa
Press
MSL
hPa
Rain since
9am
mm
Dir  Spd
km/h
Gust
km/h
Spd
kts
Gust
kts
01/11:30pm 4.7 2.7 2.2 84 1.0 NNW 2 9 1 5 1025.2 1025.1 0.0
01/11:00pm 7.6 5.7 7.6 100 0.0 N 7 11 4 6 1025.1 1025.0 0.0
01/10:30pm 6.7 5.9 6.7 100 0.0 CALM 0 0 0 0 1025.1 1025.0 0.0
01/10:00pm 7.1 6.4 7.0 99 0.0 CALM 0 0 0 0 1024.9 1024.8 0.0

Other formats

Comma delimited format used in spreadsheet applications
http://www.bom.gov.au/fwo/IDQ60801/IDQ60801.94555.axf

JavaScript Object Notation format (JSON) in row-major order
http://www.bom.gov.au/fwo/IDQ60801/IDQ60801.94555.json

Data quality

Most of these data are generated automatically and are frequently updated. Quality checks on data are not normally performed. It is possible for incorrect values to appear. Refer to information at About Latest Weather Observations and please check the disclaimer before using these data.